sensor_id;sensor_type;location;lat;lon;timestamp;temperature;humidity
19017;DHT22;9641;51.494;6.670;2022-12-10T00:01:25;-1.50;99.90
19017;DHT22;9641;51.494;6.670;2022-12-10T00:03:53;-1.50;99.90
19017;DHT22;9641;51.494;6.670;2022-12-10T00:06:22;-1.60;99.90
19017;DHT22;9641;51.494;6.670;2022-12-10T00:08:49;-1.70;99.90
19017;DHT22;9641;51.494;6.670;2022-12-10T00:11:20;-1.70;99.90
19017;DHT22;9641;51.494;6.670;2022-12-10T00:13:48;-1.70;99.90
19017;DHT22;9641;51.494;6.670;2022-12-10T00:16:17;-1.60;99.90
19017;DHT22;9641;51.494;6.670;2022-12-10T00:18:47;-1.70;99.90
19017;DHT22;9641;51.494;6.670;2022-12-10T00:21:16;-1.70;99.90
19017;DHT22;9641;51.494;6.670;2022-12-10T00:23:44;-1.70;99.90
19017;DHT22;9641;51.494;6.670;2022-12-10T00:26:15;-1.80;99.90
19017;DHT22;9641;51.494;6.670;2022-12-10T00:28:45;-1.80;99.90
19017;DHT22;9641;51.494;6.670;2022-12-10T00:31:15;-1.80;99.90
19017;DHT22;9641;51.494;6.670;2022-12-10T00:33:43;-1.80;99.90
19017;DHT22;9641;51.494;6.670;2022-12-10T00:36:12;-1.80;99.90
19017;DHT22;9641;51.494;6.670;2022-12-10T00:38:41;-1.80;99.90
19017;DHT22;9641;51.494;6.670;2022-12-10T00:41:10;-1.90;99.90
19017;DHT22;9641;51.494;6.670;2022-12-10T00:43:37;-1.90;99.90
19017;DHT22;9641;51.494;6.670;2022-12-10T00:46:07;-1.90;99.90
19017;DHT22;9641;51.494;6.670;2022-12-10T00:48:34;-1.90;99.90
19017;DHT22;9641;51.494;6.670;2022-12-10T00:51:04;-1.80;99.90
19017;DHT22;9641;51.494;6.670;2022-12-10T00:53:33;-1.80;99.90
19017;DHT22;9641;51.494;6.670;2022-12-10T00:56:01;-1.80;99.90
19017;DHT22;9641;51.494;6.670;2022-12-10T00:58:35;-1.90;99.90
19017;DHT22;9641;51.494;6.670;2022-12-10T01:01:12;-1.90;99.90
19017;DHT22;9641;51.494;6.670;2022-12-10T01:03:40;-1.90;99.90
19017;DHT22;9641;51.494;6.670;2022-12-10T01:06:11;-1.90;99.90
19017;DHT22;9641;51.494;6.670;2022-12-10T01:08:39;-1.90;99.90
19017;DHT22;9641;51.494;6.670;2022-12-10T01:11:08;-1.90;99.90
19017;DHT22;9641;51.494;6.670;2022-12-10T01:13:35;-1.90;99.90
19017;DHT22;9641;51.494;6.670;2022-12-10T01:16:06;-2.00;99.90
19017;DHT22;9641;51.494;6.670;2022-12-10T01:18:35;-2.10;99.90
19017;DHT22;9641;51.494;6.670;2022-12-10T01:21:03;-2.00;99.90
19017;DHT22;9641;51.494;6.670;2022-12-10T01:23:35;-2.00;99.90
19017;DHT22;9641;51.494;6.670;2022-12-10T01:26:04;-2.00;99.90
19017;DHT22;9641;51.494;6.670;2022-12-10T01:28:32;-2.10;99.90
19017;DHT22;9641;51.494;6.670;2022-12-10T01:31:05;-2.10;99.90
19017;DHT22;9641;51.494;6.670;2022-12-10T01:33:38;-1.90;99.90
19017;DHT22;9641;51.494;6.670;2022-12-10T01:36:08;-1.80;99.90
19017;DHT22;9641;51.494;6.670;2022-12-10T01:38:36;-1.80;99.90
19017;DHT22;9641;51.494;6.670;2022-12-10T01:41:05;-1.90;99.90
19017;DHT22;9641;51.494;6.670;2022-12-10T01:43:50;-2.00;99.90
19017;DHT22;9641;51.494;6.670;2022-12-10T01:46:20;-1.80;99.90
19017;DHT22;9641;51.494;6.670;2022-12-10T01:48:49;-1.70;99.90
19017;DHT22;9641;51.494;6.670;2022-12-10T01:51:19;-1.50;99.90
19017;DHT22;9641;51.494;6.670;2022-12-10T01:53:47;-1.40;99.90
19017;DHT22;9641;51.494;6.670;2022-12-10T01:56:17;-1.40;99.90
19017;DHT22;9641;51.494;6.670;2022-12-10T01:58:47;-1.50;99.90
19017;DHT22;9641;51.494;6.670;2022-12-10T02:01:25;-1.60;99.90
19017;DHT22;9641;51.494;6.670;2022-12-10T02:04:10;-1.60;99.90
19017;DHT22;9641;51.494;6.670;2022-12-10T02:06:45;-1.60;99.90
19017;DHT22;9641;51.494;6.670;2022-12-10T02:09:22;-1.60;99.90
19017;DHT22;9641;51.494;6.670;2022-12-10T02:11:59;-1.60;99.90
19017;DHT22;9641;51.494;6.670;2022-12-10T02:14:34;-1.50;99.90
19017;DHT22;9641;51.494;6.670;2022-12-10T02:17:13;-1.40;99.90
19017;DHT22;9641;51.494;6.670;2022-12-10T02:19:56;-1.40;99.90
19017;DHT22;9641;51.494;6.670;2022-12-10T02:22:28;-1.30;99.90
19017;DHT22;9641;51.494;6.670;2022-12-10T02:24:58;-1.30;99.90
19017;DHT22;9641;51.494;6.670;2022-12-10T02:27:31;-1.30;99.90
19017;DHT22;9641;51.494;6.670;2022-12-10T02:30:02;-1.20;99.90
19017;DHT22;9641;51.494;6.670;2022-12-10T02:32:35;-1.10;99.90
19017;DHT22;9641;51.494;6.670;2022-12-10T02:35:07;-1.00;99.90
19017;DHT22;9641;51.494;6.670;2022-12-10T02:37:40;-0.90;99.90
19017;DHT22;9641;51.494;6.670;2022-12-10T02:40:14;-0.80;99.90
19017;DHT22;9641;51.494;6.670;2022-12-10T02:42:48;-0.80;99.90
19017;DHT22;9641;51.494;6.670;2022-12-10T02:45:18;-0.90;99.90
19017;DHT22;9641;51.494;6.670;2022-12-10T02:47:49;-0.90;99.90
19017;DHT22;9641;51.494;6.670;2022-12-10T02:50:18;-0.90;99.90
19017;DHT22;9641;51.494;6.670;2022-12-10T02:52:49;-0.90;99.90
19017;DHT22;9641;51.494;6.670;2022-12-10T02:55:17;-0.90;99.90
19017;DHT22;9641;51.494;6.670;2022-12-10T02:57:58;-0.90;99.90
19017;DHT22;9641;51.494;6.670;2022-12-10T03:00:41;-0.80;99.90
19017;DHT22;9641;51.494;6.670;2022-12-10T03:03:20;-0.80;99.90
19017;DHT22;9641;51.494;6.670;2022-12-10T03:05:56;-0.70;99.90
19017;DHT22;9641;51.494;6.670;2022-12-10T03:08:32;-0.70;99.90
19017;DHT22;9641;51.494;6.670;2022-12-10T03:11:08;-0.80;99.90
19017;DHT22;9641;51.494;6.670;2022-12-10T03:13:45;-0.70;99.90
19017;DHT22;9641;51.494;6.670;2022-12-10T03:16:19;-0.80;99.90
19017;DHT22;9641;51.494;6.670;2022-12-10T03:18:51;-0.80;99.90
19017;DHT22;9641;51.494;6.670;2022-12-10T03:21:19;-0.80;99.90
19017;DHT22;9641;51.494;6.670;2022-12-10T03:23:51;-0.90;99.90
19017;DHT22;9641;51.494;6.670;2022-12-10T03:26:20;-0.90;99.90
19017;DHT22;9641;51.494;6.670;2022-12-10T03:28:51;-0.80;99.90
19017;DHT22;9641;51.494;6.670;2022-12-10T03:31:22;-0.90;99.90
19017;DHT22;9641;51.494;6.670;2022-12-10T03:33:49;-1.00;99.90
19017;DHT22;9641;51.494;6.670;2022-12-10T03:36:20;-1.00;99.90
19017;DHT22;9641;51.494;6.670;2022-12-10T03:38:48;-1.00;99.90
19017;DHT22;9641;51.494;6.670;2022-12-10T03:41:17;-1.00;99.90
19017;DHT22;9641;51.494;6.670;2022-12-10T03:43:52;-0.90;99.90
19017;DHT22;9641;51.494;6.670;2022-12-10T03:46:22;-1.00;99.90
19017;DHT22;9641;51.494;6.670;2022-12-10T03:48:49;-1.10;99.90
19017;DHT22;9641;51.494;6.670;2022-12-10T03:51:17;-1.10;99.90
19017;DHT22;9641;51.494;6.670;2022-12-10T03:53:44;-1.10;99.90
19017;DHT22;9641;51.494;6.670;2022-12-10T03:56:11;-1.10;99.90
19017;DHT22;9641;51.494;6.670;2022-12-10T03:58:38;-1.10;99.90
19017;DHT22;9641;51.494;6.670;2022-12-10T04:01:05;-1.10;99.90
19017;DHT22;9641;51.494;6.670;2022-12-10T04:03:36;-1.00;99.90
19017;DHT22;9641;51.494;6.670;2022-12-10T04:06:06;-1.00;99.90
19017;DHT22;9641;51.494;6.670;2022-12-10T04:08:34;-1.00;99.90
19017;DHT22;9641;51.494;6.670;2022-12-10T04:11:04;-1.00;99.90
19017;DHT22;9641;51.494;6.670;2022-12-10T04:13:32;-1.00;99.90
19017;DHT22;9641;51.494;6.670;2022-12-10T04:16:17;-0.90;99.90
19017;DHT22;9641;51.494;6.670;2022-12-10T04:18:59;-0.80;99.90
19017;DHT22;9641;51.494;6.670;2022-12-10T04:21:31;-0.90;99.90
19017;DHT22;9641;51.494;6.670;2022-12-10T04:24:18;-1.00;99.90
19017;DHT22;9641;51.494;6.670;2022-12-10T04:27:10;-1.00;99.90
19017;DHT22;9641;51.494;6.670;2022-12-10T04:29:38;-1.10;99.90
19017;DHT22;9641;51.494;6.670;2022-12-10T04:32:05;-1.20;99.90
19017;DHT22;9641;51.494;6.670;2022-12-10T04:34:34;-1.20;99.90
19017;DHT22;9641;51.494;6.670;2022-12-10T04:37:03;-1.40;99.90
19017;DHT22;9641;51.494;6.670;2022-12-10T04:39:32;-1.60;99.90
19017;DHT22;9641;51.494;6.670;2022-12-10T04:42:00;-1.80;99.90
19017;DHT22;9641;51.494;6.670;2022-12-10T04:44:27;-1.90;99.90
19017;DHT22;9641;51.494;6.670;2022-12-10T04:46:54;-1.80;99.90
19017;DHT22;9641;51.494;6.670;2022-12-10T04:49:22;-1.80;99.90
19017;DHT22;9641;51.494;6.670;2022-12-10T04:51:51;-1.90;99.90
19017;DHT22;9641;51.494;6.670;2022-12-10T04:54:20;-1.90;99.90
19017;DHT22;9641;51.494;6.670;2022-12-10T04:56:47;-2.00;99.90
19017;DHT22;9641;51.494;6.670;2022-12-10T04:59:15;-2.10;99.90
19017;DHT22;9641;51.494;6.670;2022-12-10T05:01:43;-2.20;99.90
19017;DHT22;9641;51.494;6.670;2022-12-10T05:04:14;-2.30;99.90
19017;DHT22;9641;51.494;6.670;2022-12-10T05:06:42;-2.40;99.90
19017;DHT22;9641;51.494;6.670;2022-12-10T05:09:12;-2.40;99.90
19017;DHT22;9641;51.494;6.670;2022-12-10T05:11:40;-2.50;99.90
19017;DHT22;9641;51.494;6.670;2022-12-10T05:14:10;-2.50;99.90
19017;DHT22;9641;51.494;6.670;2022-12-10T05:16:37;-2.50;99.90
19017;DHT22;9641;51.494;6.670;2022-12-10T05:19:04;-2.50;99.90
19017;DHT22;9641;51.494;6.670;2022-12-10T05:21:32;-2.50;99.90
19017;DHT22;9641;51.494;6.670;2022-12-10T05:24:15;-2.50;99.90
19017;DHT22;9641;51.494;6.670;2022-12-10T05:26:46;-2.40;99.90
19017;DHT22;9641;51.494;6.670;2022-12-10T05:29:17;-2.30;99.90
19017;DHT22;9641;51.494;6.670;2022-12-10T05:31:46;-2.40;99.90
19017;DHT22;9641;51.494;6.670;2022-12-10T05:34:16;-2.40;99.90
19017;DHT22;9641;51.494;6.670;2022-12-10T05:36:44;-2.50;99.90
19017;DHT22;9641;51.494;6.670;2022-12-10T05:39:11;-2.60;99.90
19017;DHT22;9641;51.494;6.670;2022-12-10T05:41:41;-2.70;99.90
19017;DHT22;9641;51.494;6.670;2022-12-10T05:44:09;-2.60;99.90
19017;DHT22;9641;51.494;6.670;2022-12-10T05:46:37;-2.60;99.90
19017;DHT22;9641;51.494;6.670;2022-12-10T05:49:05;-2.70;99.90
19017;DHT22;9641;51.494;6.670;2022-12-10T05:51:35;-2.70;99.90
19017;DHT22;9641;51.494;6.670;2022-12-10T05:54:04;-2.70;99.90
19017;DHT22;9641;51.494;6.670;2022-12-10T05:56:32;-2.80;99.90
19017;DHT22;9641;51.494;6.670;2022-12-10T05:59:03;-2.80;99.90
19017;DHT22;9641;51.494;6.670;2022-12-10T06:01:34;-2.80;99.90
19017;DHT22;9641;51.494;6.670;2022-12-10T06:04:03;-2.80;99.90
19017;DHT22;9641;51.494;6.670;2022-12-10T06:06:38;-2.80;99.90
19017;DHT22;9641;51.494;6.670;2022-12-10T06:09:09;-2.90;99.90
19017;DHT22;9641;51.494;6.670;2022-12-10T06:11:37;-2.90;99.90
19017;DHT22;9641;51.494;6.670;2022-12-10T06:14:06;-2.90;99.90
19017;DHT22;9641;51.494;6.670;2022-12-10T06:16:35;-2.80;99.90
19017;DHT22;9641;51.494;6.670;2022-12-10T06:19:03;-2.70;99.90
19017;DHT22;9641;51.494;6.670;2022-12-10T06:21:30;-2.60;99.90
19017;DHT22;9641;51.494;6.670;2022-12-10T06:23:57;-2.50;99.90
19017;DHT22;9641;51.494;6.670;2022-12-10T06:26:25;-2.50;99.90
19017;DHT22;9641;51.494;6.670;2022-12-10T06:28:54;-2.50;99.90
19017;DHT22;9641;51.494;6.670;2022-12-10T06:31:23;-2.50;99.90
19017;DHT22;9641;51.494;6.670;2022-12-10T06:33:51;-2.50;99.90
19017;DHT22;9641;51.494;6.670;2022-12-10T06:36:21;-2.60;99.90
19017;DHT22;9641;51.494;6.670;2022-12-10T06:38:48;-2.60;99.90
19017;DHT22;9641;51.494;6.670;2022-12-10T06:41:17;-2.70;99.90
19017;DHT22;9641;51.494;6.670;2022-12-10T06:43:45;-2.70;99.90
19017;DHT22;9641;51.494;6.670;2022-12-10T06:46:15;-2.50;99.90
19017;DHT22;9641;51.494;6.670;2022-12-10T06:48:45;-2.30;99.90
19017;DHT22;9641;51.494;6.670;2022-12-10T06:51:13;-2.00;99.90
19017;DHT22;9641;51.494;6.670;2022-12-10T06:53:44;-1.70;99.90
19017;DHT22;9641;51.494;6.670;2022-12-10T06:56:13;-1.60;99.90
19017;DHT22;9641;51.494;6.670;2022-12-10T06:58:41;-1.40;99.90
19017;DHT22;9641;51.494;6.670;2022-12-10T07:01:13;-1.40;99.90
19017;DHT22;9641;51.494;6.670;2022-12-10T07:03:41;-1.40;99.90
19017;DHT22;9641;51.494;6.670;2022-12-10T07:06:11;-1.30;99.90
19017;DHT22;9641;51.494;6.670;2022-12-10T07:08:40;-1.20;99.90
19017;DHT22;9641;51.494;6.670;2022-12-10T07:11:10;-1.10;99.90
19017;DHT22;9641;51.494;6.670;2022-12-10T07:13:40;-1.10;99.90
19017;DHT22;9641;51.494;6.670;2022-12-10T07:16:13;-1.10;99.90
19017;DHT22;9641;51.494;6.670;2022-12-10T07:18:52;-1.10;99.90
19017;DHT22;9641;51.494;6.670;2022-12-10T07:21:26;-1.00;99.90
19017;DHT22;9641;51.494;6.670;2022-12-10T07:24:01;-0.90;99.90
19017;DHT22;9641;51.494;6.670;2022-12-10T07:26:33;-0.90;99.90
19017;DHT22;9641;51.494;6.670;2022-12-10T07:29:00;-0.90;99.90
19017;DHT22;9641;51.494;6.670;2022-12-10T07:31:28;-0.90;99.90
19017;DHT22;9641;51.494;6.670;2022-12-10T07:33:59;-0.90;99.90
19017;DHT22;9641;51.494;6.670;2022-12-10T07:36:32;-0.80;99.90
19017;DHT22;9641;51.494;6.670;2022-12-10T07:38:59;-0.80;99.90
19017;DHT22;9641;51.494;6.670;2022-12-10T07:41:27;-0.90;99.90
19017;DHT22;9641;51.494;6.670;2022-12-10T07:43:57;-0.80;99.90
19017;DHT22;9641;51.494;6.670;2022-12-10T07:46:29;-0.80;99.90
19017;DHT22;9641;51.494;6.670;2022-12-10T07:48:58;-0.70;99.90
19017;DHT22;9641;51.494;6.670;2022-12-10T07:51:32;-0.70;99.90
19017;DHT22;9641;51.494;6.670;2022-12-10T07:54:00;-0.70;99.90
19017;DHT22;9641;51.494;6.670;2022-12-10T07:56:29;-0.70;99.90
19017;DHT22;9641;51.494;6.670;2022-12-10T07:58:57;-0.70;99.90
19017;DHT22;9641;51.494;6.670;2022-12-10T08:01:26;-0.70;99.90
19017;DHT22;9641;51.494;6.670;2022-12-10T08:03:55;-0.80;99.90
19017;DHT22;9641;51.494;6.670;2022-12-10T08:06:25;-0.80;99.90
19017;DHT22;9641;51.494;6.670;2022-12-10T08:09:09;-0.80;99.90
19017;DHT22;9641;51.494;6.670;2022-12-10T08:11:37;-0.70;99.90
19017;DHT22;9641;51.494;6.670;2022-12-10T08:14:05;-0.70;99.90
19017;DHT22;9641;51.494;6.670;2022-12-10T08:16:34;-0.70;99.90
19017;DHT22;9641;51.494;6.670;2022-12-10T08:19:04;-0.70;99.90
19017;DHT22;9641;51.494;6.670;2022-12-10T08:21:32;-0.70;99.90
19017;DHT22;9641;51.494;6.670;2022-12-10T08:24:00;-0.60;99.90
19017;DHT22;9641;51.494;6.670;2022-12-10T08:26:31;-0.70;99.90
19017;DHT22;9641;51.494;6.670;2022-12-10T08:29:13;-0.70;99.90
19017;DHT22;9641;51.494;6.670;2022-12-10T08:32:00;-0.70;99.90
19017;DHT22;9641;51.494;6.670;2022-12-10T08:34:31;-0.60;99.90
19017;DHT22;9641;51.494;6.670;2022-12-10T08:37:02;-0.60;99.90
19017;DHT22;9641;51.494;6.670;2022-12-10T08:39:39;-0.60;99.90
19017;DHT22;9641;51.494;6.670;2022-12-10T08:42:18;-0.50;99.90
19017;DHT22;9641;51.494;6.670;2022-12-10T08:45:00;-0.50;99.90
19017;DHT22;9641;51.494;6.670;2022-12-10T08:47:28;-0.60;99.90
19017;DHT22;9641;51.494;6.670;2022-12-10T08:49:56;-0.50;99.90
19017;DHT22;9641;51.494;6.670;2022-12-10T08:52:24;-0.50;99.90
19017;DHT22;9641;51.494;6.670;2022-12-10T08:54:54;-0.50;99.90
19017;DHT22;9641;51.494;6.670;2022-12-10T08:57:23;-0.40;99.90
19017;DHT22;9641;51.494;6.670;2022-12-10T08:59:52;-0.40;99.90
19017;DHT22;9641;51.494;6.670;2022-12-10T09:02:23;-0.40;99.90
19017;DHT22;9641;51.494;6.670;2022-12-10T09:04:53;-0.40;99.90
19017;DHT22;9641;51.494;6.670;2022-12-10T09:07:23;-0.30;99.90
19017;DHT22;9641;51.494;6.670;2022-12-10T09:09:55;-0.40;99.90
19017;DHT22;9641;51.494;6.670;2022-12-10T09:12:28;-0.40;99.90
19017;DHT22;9641;51.494;6.670;2022-12-10T09:14:58;-0.30;99.90
19017;DHT22;9641;51.494;6.670;2022-12-10T09:17:25;-0.40;99.90
19017;DHT22;9641;51.494;6.670;2022-12-10T09:19:55;-0.40;99.90
19017;DHT22;9641;51.494;6.670;2022-12-10T09:22:23;-0.30;99.90
19017;DHT22;9641;51.494;6.670;2022-12-10T09:24:51;-0.30;99.90
19017;DHT22;9641;51.494;6.670;2022-12-10T09:27:18;-0.30;99.90
19017;DHT22;9641;51.494;6.670;2022-12-10T09:30:13;-0.30;99.90
19017;DHT22;9641;51.494;6.670;2022-12-10T09:32:43;-0.20;99.90
19017;DHT22;9641;51.494;6.670;2022-12-10T09:35:24;-0.30;99.90
19017;DHT22;9641;51.494;6.670;2022-12-10T09:37:51;-0.20;99.90
19017;DHT22;9641;51.494;6.670;2022-12-10T09:40:26;-0.10;99.90
19017;DHT22;9641;51.494;6.670;2022-12-10T09:42:58;-0.10;99.90
19017;DHT22;9641;51.494;6.670;2022-12-10T09:45:45;0.00;99.90
19017;DHT22;9641;51.494;6.670;2022-12-10T09:48:26;0.00;99.90
19017;DHT22;9641;51.494;6.670;2022-12-10T09:51:06;0.00;99.90
19017;DHT22;9641;51.494;6.670;2022-12-10T09:53:39;-0.10;99.90
19017;DHT22;9641;51.494;6.670;2022-12-10T09:56:21;-0.10;99.90
19017;DHT22;9641;51.494;6.670;2022-12-10T09:59:10;-0.20;99.90
19017;DHT22;9641;51.494;6.670;2022-12-10T10:05:06;-0.10;99.90
19017;DHT22;9641;51.494;6.670;2022-12-10T10:07:43;-0.10;99.90
19017;DHT22;9641;51.494;6.670;2022-12-10T10:10:21;0.00;99.90
19017;DHT22;9641;51.494;6.670;2022-12-10T10:13:18;0.20;99.90
19017;DHT22;9641;51.494;6.670;2022-12-10T10:16:58;0.30;99.90
19017;DHT22;9641;51.494;6.670;2022-12-10T10:19:33;0.40;99.90
19017;DHT22;9641;51.494;6.670;2022-12-10T10:22:12;0.40;99.90
19017;DHT22;9641;51.494;6.670;2022-12-10T10:24:45;0.50;99.90
19017;DHT22;9641;51.494;6.670;2022-12-10T10:27:24;0.50;99.90
19017;DHT22;9641;51.494;6.670;2022-12-10T10:30:06;0.60;99.90
19017;DHT22;9641;51.494;6.670;2022-12-10T10:32:50;0.70;99.90
19017;DHT22;9641;51.494;6.670;2022-12-10T10:35:43;0.70;99.90
19017;DHT22;9641;51.494;6.670;2022-12-10T10:38:28;0.80;99.90
19017;DHT22;9641;51.494;6.670;2022-12-10T10:41:13;0.80;99.90
19017;DHT22;9641;51.494;6.670;2022-12-10T10:44:02;0.80;99.90
19017;DHT22;9641;51.494;6.670;2022-12-10T10:46:55;0.90;99.90
19017;DHT22;9641;51.494;6.670;2022-12-10T10:49:26;0.90;99.90
19017;DHT22;9641;51.494;6.670;2022-12-10T10:52:36;0.90;99.90
19017;DHT22;9641;51.494;6.670;2022-12-10T10:55:31;0.90;99.90
19017;DHT22;9641;51.494;6.670;2022-12-10T10:58:18;1.00;99.90
19017;DHT22;9641;51.494;6.670;2022-12-10T11:01:04;1.00;99.90
19017;DHT22;9641;51.494;6.670;2022-12-10T11:03:54;1.00;99.90
19017;DHT22;9641;51.494;6.670;2022-12-10T11:06:37;1.00;99.90
19017;DHT22;9641;51.494;6.670;2022-12-10T11:09:07;0.90;99.90
19017;DHT22;9641;51.494;6.670;2022-12-10T11:11:40;1.10;99.90
19017;DHT22;9641;51.494;6.670;2022-12-10T11:14:15;1.10;99.90
19017;DHT22;9641;51.494;6.670;2022-12-10T11:16:51;1.10;99.90
19017;DHT22;9641;51.494;6.670;2022-12-10T11:19:27;1.00;99.90
19017;DHT22;9641;51.494;6.670;2022-12-10T11:22:15;1.00;99.90
19017;DHT22;9641;51.494;6.670;2022-12-10T11:24:48;1.00;99.90
19017;DHT22;9641;51.494;6.670;2022-12-10T11:27:35;1.10;99.90
19017;DHT22;9641;51.494;6.670;2022-12-10T11:30:13;1.10;99.90
19017;DHT22;9641;51.494;6.670;2022-12-10T11:33:09;1.10;99.90
19017;DHT22;9641;51.494;6.670;2022-12-10T11:36:15;0.90;99.90
19017;DHT22;9641;51.494;6.670;2022-12-10T11:39:25;1.00;99.90
19017;DHT22;9641;51.494;6.670;2022-12-10T11:48:24;1.10;99.90
19017;DHT22;9641;51.494;6.670;2022-12-10T11:51:19;1.00;99.90
19017;DHT22;9641;51.494;6.670;2022-12-10T11:54:09;1.10;99.90
19017;DHT22;9641;51.494;6.670;2022-12-10T11:56:49;1.20;99.90
19017;DHT22;9641;51.494;6.670;2022-12-10T12:03:15;1.00;99.90
19017;DHT22;9641;51.494;6.670;2022-12-10T12:06:25;1.00;99.90
19017;DHT22;9641;51.494;6.670;2022-12-10T12:09:13;0.90;99.90
19017;DHT22;9641;51.494;6.670;2022-12-10T12:12:18;1.00;99.90
19017;DHT22;9641;51.494;6.670;2022-12-10T12:14:53;1.00;99.90
19017;DHT22;9641;51.494;6.670;2022-12-10T12:17:26;1.10;99.90
19017;DHT22;9641;51.494;6.670;2022-12-10T12:20:14;1.10;99.90
19017;DHT22;9641;51.494;6.670;2022-12-10T12:22:51;1.20;99.90
19017;DHT22;9641;51.494;6.670;2022-12-10T12:25:30;1.20;99.90
19017;DHT22;9641;51.494;6.670;2022-12-10T12:28:09;1.20;99.90
19017;DHT22;9641;51.494;6.670;2022-12-10T12:30:57;1.20;99.90
19017;DHT22;9641;51.494;6.670;2022-12-10T12:33:43;1.20;99.90
19017;DHT22;9641;51.494;6.670;2022-12-10T12:36:26;1.20;99.90
19017;DHT22;9641;51.494;6.670;2022-12-10T12:39:17;1.30;99.90
19017;DHT22;9641;51.494;6.670;2022-12-10T12:41:57;1.30;99.90
19017;DHT22;9641;51.494;6.670;2022-12-10T12:44:32;1.40;99.90
19017;DHT22;9641;51.494;6.670;2022-12-10T12:47:21;1.40;99.90
19017;DHT22;9641;51.494;6.670;2022-12-10T12:50:30;1.40;99.90
19017;DHT22;9641;51.494;6.670;2022-12-10T12:53:13;1.40;99.90
19017;DHT22;9641;51.494;6.670;2022-12-10T12:56:03;1.30;99.90
19017;DHT22;9641;51.494;6.670;2022-12-10T12:58:49;1.30;99.90
19017;DHT22;9641;51.494;6.670;2022-12-10T13:01:35;1.20;99.90
19017;DHT22;9641;51.494;6.670;2022-12-10T13:04:06;1.20;99.90
19017;DHT22;9641;51.494;6.670;2022-12-10T13:09:33;1.30;99.90
19017;DHT22;9641;51.494;6.670;2022-12-10T13:12:28;1.30;99.90
19017;DHT22;9641;51.494;6.670;2022-12-10T13:15:13;1.30;99.90
19017;DHT22;9641;51.494;6.670;2022-12-10T13:20:48;1.30;99.90
19017;DHT22;9641;51.494;6.670;2022-12-10T13:23:31;1.30;99.90
19017;DHT22;9641;51.494;6.670;2022-12-10T13:26:23;1.30;99.90
19017;DHT22;9641;51.494;6.670;2022-12-10T13:28:55;1.30;99.90
19017;DHT22;9641;51.494;6.670;2022-12-10T13:31:37;1.30;99.90
19017;DHT22;9641;51.494;6.670;2022-12-10T13:34:37;1.30;99.90
19017;DHT22;9641;51.494;6.670;2022-12-10T13:37:16;1.30;99.90
19017;DHT22;9641;51.494;6.670;2022-12-10T13:39:53;1.40;99.90
19017;DHT22;9641;51.494;6.670;2022-12-10T13:42:44;1.40;99.90
19017;DHT22;9641;51.494;6.670;2022-12-10T13:45:33;1.50;99.90
19017;DHT22;9641;51.494;6.670;2022-12-10T13:48:36;1.50;99.90
19017;DHT22;9641;51.494;6.670;2022-12-10T13:51:35;1.50;99.90
19017;DHT22;9641;51.494;6.670;2022-12-10T13:54:51;1.60;99.90
19017;DHT22;9641;51.494;6.670;2022-12-10T14:01:18;1.60;99.90
19017;DHT22;9641;51.494;6.670;2022-12-10T14:04:38;1.60;99.90
19017;DHT22;9641;51.494;6.670;2022-12-10T14:07:12;1.60;99.90
19017;DHT22;9641;51.494;6.670;2022-12-10T14:09:56;1.60;99.90
19017;DHT22;9641;51.494;6.670;2022-12-10T14:12:30;1.60;99.90
19017;DHT22;9641;51.494;6.670;2022-12-10T14:15:24;1.50;99.90
19017;DHT22;9641;51.494;6.670;2022-12-10T14:17:58;1.50;99.90
19017;DHT22;9641;51.494;6.670;2022-12-10T14:20:32;1.50;99.90
19017;DHT22;9641;51.494;6.670;2022-12-10T14:23:28;1.50;99.90
19017;DHT22;9641;51.494;6.670;2022-12-10T14:26:11;1.50;99.90
19017;DHT22;9641;51.494;6.670;2022-12-10T14:28:44;1.50;99.90
19017;DHT22;9641;51.494;6.670;2022-12-10T14:31:48;1.30;99.90
19017;DHT22;9641;51.494;6.670;2022-12-10T14:34:27;1.30;99.90
19017;DHT22;9641;51.494;6.670;2022-12-10T14:40:07;1.10;99.90
19017;DHT22;9641;51.494;6.670;2022-12-10T14:43:04;1.20;99.90
19017;DHT22;9641;51.494;6.670;2022-12-10T14:45:51;1.20;99.90
19017;DHT22;9641;51.494;6.670;2022-12-10T14:52:17;1.20;99.90
19017;DHT22;9641;51.494;6.670;2022-12-10T14:55:21;1.20;99.90
19017;DHT22;9641;51.494;6.670;2022-12-10T14:58:21;1.20;99.90
19017;DHT22;9641;51.494;6.670;2022-12-10T15:01:20;1.20;99.90
19017;DHT22;9641;51.494;6.670;2022-12-10T15:04:20;1.30;99.90
19017;DHT22;9641;51.494;6.670;2022-12-10T15:07:22;1.30;99.90
19017;DHT22;9641;51.494;6.670;2022-12-10T15:09:54;1.30;99.90
19017;DHT22;9641;51.494;6.670;2022-12-10T15:12:35;1.30;99.90
19017;DHT22;9641;51.494;6.670;2022-12-10T15:15:23;1.30;99.90
19017;DHT22;9641;51.494;6.670;2022-12-10T15:17:57;1.30;99.90
19017;DHT22;9641;51.494;6.670;2022-12-10T15:20:45;1.30;99.90
19017;DHT22;9641;51.494;6.670;2022-12-10T15:23:50;1.30;99.90
19017;DHT22;9641;51.494;6.670;2022-12-10T15:26:23;1.30;99.90
19017;DHT22;9641;51.494;6.670;2022-12-10T15:29:34;1.30;99.90
19017;DHT22;9641;51.494;6.670;2022-12-10T15:32:15;1.30;99.90
19017;DHT22;9641;51.494;6.670;2022-12-10T15:34:58;1.30;99.90
19017;DHT22;9641;51.494;6.670;2022-12-10T15:37:40;1.30;99.90
19017;DHT22;9641;51.494;6.670;2022-12-10T15:40:27;1.20;99.90
19017;DHT22;9641;51.494;6.670;2022-12-10T15:43:22;1.30;99.90
19017;DHT22;9641;51.494;6.670;2022-12-10T15:45:58;1.40;99.90
19017;DHT22;9641;51.494;6.670;2022-12-10T15:48:47;1.40;99.90
19017;DHT22;9641;51.494;6.670;2022-12-10T15:51:33;1.30;99.90
19017;DHT22;9641;51.494;6.670;2022-12-10T15:54:33;1.30;99.90
19017;DHT22;9641;51.494;6.670;2022-12-10T16:00:40;1.20;99.90
19017;DHT22;9641;51.494;6.670;2022-12-10T16:03:15;1.20;99.90
19017;DHT22;9641;51.494;6.670;2022-12-10T16:05:50;1.20;99.90
19017;DHT22;9641;51.494;6.670;2022-12-10T16:08:26;1.30;99.90
19017;DHT22;9641;51.494;6.670;2022-12-10T16:10:57;1.30;99.90
19017;DHT22;9641;51.494;6.670;2022-12-10T16:13:48;1.30;99.90
19017;DHT22;9641;51.494;6.670;2022-12-10T16:22:40;1.30;99.90
19017;DHT22;9641;51.494;6.670;2022-12-10T16:25:17;1.40;99.90
19017;DHT22;9641;51.494;6.670;2022-12-10T16:27:58;1.40;99.90
19017;DHT22;9641;51.494;6.670;2022-12-10T16:30:42;1.40;99.90
19017;DHT22;9641;51.494;6.670;2022-12-10T16:33:33;1.40;99.90
19017;DHT22;9641;51.494;6.670;2022-12-10T16:36:17;1.40;99.90
19017;DHT22;9641;51.494;6.670;2022-12-10T16:39:28;1.40;99.90
19017;DHT22;9641;51.494;6.670;2022-12-10T16:42:00;1.50;99.90
19017;DHT22;9641;51.494;6.670;2022-12-10T16:44:44;1.40;99.90
19017;DHT22;9641;51.494;6.670;2022-12-10T16:47:16;1.40;99.90
19017;DHT22;9641;51.494;6.670;2022-12-10T16:50:22;1.40;99.90
19017;DHT22;9641;51.494;6.670;2022-12-10T16:53:19;1.40;99.90
19017;DHT22;9641;51.494;6.670;2022-12-10T16:55:51;1.40;99.90
19017;DHT22;9641;51.494;6.670;2022-12-10T16:58:20;1.30;99.90
19017;DHT22;9641;51.494;6.670;2022-12-10T17:00:59;1.30;99.90
19017;DHT22;9641;51.494;6.670;2022-12-10T17:03:50;1.30;99.90
19017;DHT22;9641;51.494;6.670;2022-12-10T17:06:21;1.40;99.90
19017;DHT22;9641;51.494;6.670;2022-12-10T17:09:06;1.40;99.90
19017;DHT22;9641;51.494;6.670;2022-12-10T17:11:47;1.40;99.90
19017;DHT22;9641;51.494;6.670;2022-12-10T17:14:29;1.40;99.90
19017;DHT22;9641;51.494;6.670;2022-12-10T17:17:25;1.40;99.90
19017;DHT22;9641;51.494;6.670;2022-12-10T17:20:34;1.40;99.90
19017;DHT22;9641;51.494;6.670;2022-12-10T17:23:14;1.40;99.90
19017;DHT22;9641;51.494;6.670;2022-12-10T17:25:53;1.40;99.90
19017;DHT22;9641;51.494;6.670;2022-12-10T17:28:44;1.40;99.90
19017;DHT22;9641;51.494;6.670;2022-12-10T17:31:34;1.40;99.90
19017;DHT22;9641;51.494;6.670;2022-12-10T17:34:19;1.30;99.90